Time;durP1;ratioP1;P1;durP2;ratioP2;P2;SDS_P1;SDS_P2;PMS_P1;PMS_P2;Temp;Humidity;BMP_temperature;BMP_pressure;BME280_temperature;BME280_humidity;BME280_pressure;Samples;Min_cycle;Max_cycle;Signal;HPM_P1;HPM_P2
2021/12/02 00:01:56;;;;;;;7.95;1.60;;;3.50;99.90;;;;;;5001662;28;20147;-55
2021/12/02 00:04:21;;;;;;;9.70;1.40;;;3.50;99.90;;;;;;5004544;28;20042;-55
2021/12/02 00:06:47;;;;;;;12.68;2.25;;;3.60;99.90;;;;;;4993163;28;20037;-54
2021/12/02 00:09:12;;;;;;;10.07;2.42;;;3.50;99.90;;;;;;4993358;28;20131;-56
2021/12/02 00:11:38;;;;;;;13.07;1.65;;;3.60;99.90;;;;;;4999692;28;20027;-54
2021/12/02 00:14:10;;;;;;;15.63;2.00;;;3.50;99.90;;;;;;5009712;28;20034;-54
2021/12/02 00:16:49;;;;;;;9.85;1.90;;;3.50;99.90;;;;;;4999996;28;20030;-54
2021/12/02 00:22:02;;;;;;;19.10;2.58;;;3.50;99.90;;;;;;5002138;28;20507;-54
2021/12/02 00:24:34;;;;;;;17.05;3.33;;;3.50;99.90;;;;;;5008252;28;20387;-56
2021/12/02 00:27:00;;;;;;;15.40;2.17;;;3.50;99.90;;;;;;4994416;28;20041;-54
2021/12/02 00:29:29;;;;;;;12.93;2.42;;;3.50;99.90;;;;;;4999264;28;20431;-56
2021/12/02 00:31:59;;;;;;;18.85;1.90;;;3.50;99.90;;;;;;5002875;28;20548;-54
2021/12/02 00:34:25;;;;;;;11.68;2.75;;;3.50;99.90;;;;;;4999698;28;20038;-55
2021/12/02 00:36:50;;;;;;;11.55;1.35;;;3.50;99.90;;;;;;5002571;28;20380;-54
2021/12/02 00:39:18;;;;;;;14.57;2.15;;;3.50;99.90;;;;;;4997975;28;20029;-54
2021/12/02 00:41:44;;;;;;;15.05;2.25;;;3.50;99.90;;;;;;4996800;28;20450;-54
2021/12/02 00:44:11;;;;;;;18.15;2.67;;;3.50;99.90;;;;;;5004255;28;20061;-56
2021/12/02 00:46:37;;;;;;;19.80;2.30;;;3.50;99.90;;;;;;5003770;28;20034;-55
2021/12/02 00:49:07;;;;;;;15.15;2.20;;;3.50;99.90;;;;;;5002783;28;20022;-56
2021/12/02 00:51:34;;;;;;;9.98;1.55;;;3.50;99.90;;;;;;4998104;28;20550;-56
2021/12/02 00:54:03;;;;;;;15.90;2.70;;;3.50;99.90;;;;;;5003031;28;20658;-54
2021/12/02 00:56:29;;;;;;;12.27;2.30;;;3.50;99.90;;;;;;4996122;28;20516;-55
2021/12/02 00:58:55;;;;;;;9.55;1.63;;;3.50;99.90;;;;;;5001726;28;20028;-54
2021/12/02 01:01:24;;;;;;;8.80;1.83;;;3.50;99.90;;;;;;5004356;28;20068;-55
2021/12/02 01:03:54;;;;;;;13.45;2.08;;;3.50;99.90;;;;;;4997966;28;20140;-55
2021/12/02 01:06:20;;;;;;;9.30;1.60;;;3.50;99.90;;;;;;5004775;28;20034;-53
2021/12/02 01:08:46;;;;;;;11.93;1.67;;;3.50;99.90;;;;;;5004619;28;20022;-55
2021/12/02 01:11:13;;;;;;;10.23;2.00;;;3.40;99.90;;;;;;5005786;28;20121;-55
2021/12/02 01:13:39;;;;;;;11.90;2.05;;;3.40;99.90;;;;;;5005241;28;20483;-54
2021/12/02 01:16:05;;;;;;;10.93;2.25;;;3.40;99.90;;;;;;5006244;28;20179;-54
2021/12/02 01:18:31;;;;;;;10.60;1.75;;;3.40;99.90;;;;;;5004490;28;20029;-56
2021/12/02 01:20:57;;;;;;;12.52;2.22;;;3.40;99.90;;;;;;5006592;28;20030;-54
2021/12/02 01:23:26;;;;;;;15.73;2.10;;;3.40;99.90;;;;;;5003560;28;20481;-54
2021/12/02 01:25:59;;;;;;;12.75;2.05;;;3.40;99.90;;;;;;4999408;28;20084;-57
2021/12/02 01:28:25;;;;;;;11.55;2.20;;;3.30;99.90;;;;;;5005322;28;20026;-54
2021/12/02 01:30:55;;;;;;;14.02;1.75;;;3.40;99.90;;;;;;5009678;28;20030;-56
2021/12/02 01:33:22;;;;;;;16.08;1.95;;;3.40;99.90;;;;;;5005215;28;20037;-54
2021/12/02 01:35:59;;;;;;;11.55;2.13;;;3.30;99.90;;;;;;5009843;28;20026;-56
2021/12/02 01:38:27;;;;;;;12.18;2.20;;;3.30;99.90;;;;;;5004175;28;20056;-57
2021/12/02 01:40:55;;;;;;;14.73;2.25;;;3.30;99.90;;;;;;5009603;28;20028;-54
2021/12/02 01:43:35;;;;;;;12.32;2.08;;;3.30;99.90;;;;;;5004804;28;20112;-57
2021/12/02 01:46:03;;;;;;;14.55;2.33;;;3.20;99.90;;;;;;5000379;28;20030;-57
2021/12/02 01:48:31;;;;;;;12.18;2.28;;;3.20;99.90;;;;;;5010324;28;20088;-55
2021/12/02 01:51:05;;;;;;;10.35;1.88;;;3.20;99.90;;;;;;5001667;28;20369;-56
2021/12/02 01:53:35;;;;;;;9.32;1.90;;;3.20;99.90;;;;;;5011376;28;20029;-55
2021/12/02 01:56:13;;;;;;;13.98;2.22;;;3.10;99.90;;;;;;5001769;28;20384;-55
2021/12/02 01:58:47;;;;;;;10.45;1.45;;;3.20;99.90;;;;;;5010934;28;20022;-55
2021/12/02 02:01:25;;;;;;;9.68;1.83;;;3.20;99.90;;;;;;5002334;28;20034;-57
2021/12/02 02:03:53;;;;;;;17.35;1.75;;;3.20;99.90;;;;;;4975310;28;20031;-57
2021/12/02 02:06:39;;;;;;;12.50;1.92;;;3.20;99.90;;;;;;4998633;28;20030;-57
2021/12/02 02:09:07;;;;;;;5.68;1.30;;;3.10;99.90;;;;;;4972125;28;20026;-55
2021/12/02 02:11:33;;;;;;;6.82;1.65;;;3.10;99.90;;;;;;5001676;28;20037;-56
2021/12/02 02:14:00;;;;;;;7.65;1.60;;;3.10;99.90;;;;;;5011902;28;20483;-54
2021/12/02 02:16:27;;;;;;;9.43;1.92;;;3.10;99.90;;;;;;5001153;28;20031;-55
2021/12/02 02:18:53;;;;;;;7.30;1.77;;;3.00;99.90;;;;;;5011179;28;20427;-54
2021/12/02 02:21:22;;;;;;;8.07;1.73;;;3.00;99.90;;;;;;5000399;28;20029;-54
2021/12/02 02:23:57;;;;;;;10.75;1.88;;;3.00;99.90;;;;;;4996112;28;20509;-55
2021/12/02 02:26:29;;;;;;;6.68;1.20;;;3.00;99.90;;;;;;5001212;28;20116;-55
2021/12/02 02:28:56;;;;;;;9.95;1.42;;;3.00;99.90;;;;;;5004006;28;20459;-56
2021/12/02 02:31:23;;;;;;;6.40;1.23;;;3.00;99.90;;;;;;5002925;28;20103;-56
2021/12/02 02:33:50;;;;;;;5.03;1.33;;;3.00;99.90;;;;;;5003868;28;20518;-54
2021/12/02 02:36:18;;;;;;;6.45;1.48;;;2.90;99.90;;;;;;5003111;28;20101;-54
2021/12/02 02:38:54;;;;;;;5.60;1.13;;;3.00;99.90;;;;;;4993719;28;20041;-55
2021/12/02 02:41:21;;;;;;;7.97;1.17;;;3.00;99.90;;;;;;5003162;28;20037;-57
2021/12/02 02:43:49;;;;;;;8.15;1.30;;;3.00;99.90;;;;;;4983436;28;20030;-55
2021/12/02 02:46:40;;;;;;;6.15;1.30;;;3.00;99.90;;;;;;4971912;28;20559;-54
2021/12/02 02:49:10;;;;;;;4.75;1.33;;;3.00;99.90;;;;;;4981849;28;20018;-54
2021/12/02 02:51:38;;;;;;;5.88;0.88;;;3.00;99.90;;;;;;5000255;28;20502;-56
2021/12/02 02:54:07;;;;;;;6.35;1.00;;;3.00;99.90;;;;;;4996021;28;20030;-56
2021/12/02 02:56:38;;;;;;;3.42;0.98;;;3.00;99.90;;;;;;5001273;28;20026;-57
2021/12/02 03:07:09;;;;;;;4.07;1.80;;;2.90;99.90;;;;;;4980731;28;20043;-57
2021/12/02 03:10:21;;;;;;;3.80;1.20;;;2.80;99.90;;;;;;5000752;28;20039;-54
2021/12/02 03:12:29;;;;;;;6.55;1.55;;;2.80;99.90;;;;;;4995912;28;20042;-54
2021/12/02 03:17:30;;;;;;;4.03;0.93;;;2.70;99.90;;;;;;5004772;28;20106;-53
2021/12/02 03:19:56;;;;;;;7.07;1.25;;;2.70;99.90;;;;;;4999659;28;20396;-55
2021/12/02 03:22:22;;;;;;;8.57;1.20;;;2.60;99.90;;;;;;4996114;28;20046;-54
2021/12/02 03:24:47;;;;;;;11.18;1.45;;;2.60;99.90;;;;;;5002492;28;20423;-53
2021/12/02 03:27:13;;;;;;;8.70;1.45;;;2.60;99.90;;;;;;5007028;28;20061;-55
2021/12/02 03:29:41;;;;;;;9.77;1.38;;;2.50;99.90;;;;;;4999669;28;20365;-53
2021/12/02 03:32:10;;;;;;;13.73;1.38;;;2.50;99.90;;;;;;5008624;28;20040;-53
2021/12/02 03:34:38;;;;;;;6.75;1.15;;;2.50;99.90;;;;;;5000961;28;20022;-54
2021/12/02 03:37:04;;;;;;;5.53;1.40;;;2.50;99.90;;;;;;5009764;28;20049;-55
2021/12/02 03:39:30;;;;;;;6.28;1.52;;;2.40;99.90;;;;;;4998116;28;20446;-55
2021/12/02 03:41:56;;;;;;;8.88;1.33;;;2.40;99.90;;;;;;5010226;28;20112;-53
2021/12/02 03:44:22;;;;;;;8.73;1.73;;;2.40;99.90;;;;;;4999362;28;20026;-56
2021/12/02 03:46:48;;;;;;;6.82;1.23;;;2.40;99.90;;;;;;5009031;28;20715;-53
2021/12/02 03:49:14;;;;;;;11.45;1.55;;;2.40;99.90;;;;;;4999530;28;20204;-54
2021/12/02 03:51:40;;;;;;;6.75;1.20;;;2.40;99.90;;;;;;5002123;28;20508;-53
2021/12/02 03:54:05;;;;;;;6.13;1.10;;;2.40;99.90;;;;;;5000364;28;20033;-55
2021/12/02 03:56:31;;;;;;;10.18;1.10;;;2.30;99.90;;;;;;5002292;28;20483;-54
2021/12/02 03:58:57;;;;;;;8.15;2.08;;;2.30;99.90;;;;;;4990008;28;20182;-53
2021/12/02 04:01:22;;;;;;;10.40;1.27;;;2.20;99.90;;;;;;4993630;28;20097;-53
2021/12/02 04:03:49;;;;;;;5.32;1.23;;;2.10;99.90;;;;;;4997757;28;20037;-53
2021/12/02 04:06:15;;;;;;;4.45;1.50;;;2.10;99.90;;;;;;5005544;28;20038;-53
2021/12/02 04:16:27;;;;;;;4.43;1.02;;;2.00;99.90;;;;;;4989257;28;20073;-54
2021/12/02 04:18:52;;;;;;;2.80;1.10;;;2.00;99.90;;;;;;4990405;28;20041;-55
2021/12/02 04:21:18;;;;;;;5.10;1.20;;;2.00;99.90;;;;;;5005964;28;20049;-56
2021/12/02 04:23:44;;;;;;;6.28;1.20;;;2.00;99.90;;;;;;4997267;28;20121;-55
2021/12/02 04:26:09;;;;;;;10.73;1.60;;;1.90;99.90;;;;;;5004321;28;20145;-54
2021/12/02 04:28:35;;;;;;;7.60;1.77;;;1.90;99.90;;;;;;4999058;28;20034;-55
2021/12/02 04:31:01;;;;;;;4.45;1.80;;;1.90;99.90;;;;;;5003324;28;20048;-53
2021/12/02 04:33:28;;;;;;;8.02;1.23;;;2.00;99.90;;;;;;5001474;28;20093;-56
2021/12/02 04:35:54;;;;;;;5.70;1.10;;;1.90;99.90;;;;;;5004468;28;20034;-55
2021/12/02 04:38:21;;;;;;;11.02;1.20;;;1.90;99.90;;;;;;4999132;28;20027;-55
2021/12/02 04:40:46;;;;;;;3.75;1.40;;;2.00;99.90;;;;;;4974720;28;20085;-53
2021/12/02 04:43:12;;;;;;;5.85;1.40;;;2.00;99.90;;;;;;4999972;28;20476;-55
2021/12/02 04:45:38;;;;;;;8.80;1.38;;;2.00;99.90;;;;;;5012667;28;20367;-54
2021/12/02 04:48:04;;;;;;;5.93;1.73;;;2.00;99.90;;;;;;5002231;28;20484;-57
2021/12/02 04:50:29;;;;;;;7.18;1.38;;;2.00;99.90;;;;;;5011361;28;20026;-57
2021/12/02 04:52:55;;;;;;;5.47;1.27;;;1.90;99.90;;;;;;5004571;28;20049;-57
2021/12/02 04:55:21;;;;;;;5.93;1.75;;;2.00;99.90;;;;;;5009908;28;20042;-57
2021/12/02 04:57:48;;;;;;;9.20;1.67;;;2.00;99.90;;;;;;5006777;28;20047;-55
2021/12/02 05:00:14;;;;;;;6.05;1.60;;;1.90;99.90;;;;;;5008631;28;20033;-57
2021/12/02 05:02:41;;;;;;;11.70;1.70;;;1.90;99.90;;;;;;5008423;28;20395;-57
2021/12/02 05:05:08;;;;;;;7.60;1.48;;;1.90;99.90;;;;;;5007623;28;20025;-57
2021/12/02 05:07:34;;;;;;;10.00;1.60;;;1.90;99.90;;;;;;5003921;28;20030;-58
2021/12/02 05:10:00;;;;;;;10.50;1.42;;;1.90;99.90;;;;;;5004558;28;20030;-57
2021/12/02 05:12:26;;;;;;;8.45;1.35;;;2.00;99.90;;;;;;5003906;28;20042;-56
2021/12/02 05:14:52;;;;;;;13.23;1.95;;;1.90;99.90;;;;;;5004773;28;20022;-57
2021/12/02 05:17:17;;;;;;;9.70;1.35;;;1.90;99.90;;;;;;5004845;28;20089;-57
2021/12/02 05:19:43;;;;;;;16.92;1.90;;;1.90;99.90;;;;;;5003852;28;20025;-56
2021/12/02 05:22:09;;;;;;;8.52;1.50;;;1.90;99.90;;;;;;5006206;28;20233;-57
2021/12/02 05:24:35;;;;;;;8.40;1.63;;;1.90;99.90;;;;;;5003365;28;20157;-57
2021/12/02 05:27:00;;;;;;;5.50;1.48;;;1.90;99.90;;;;;;5008735;28;20069;-55
2021/12/02 05:29:26;;;;;;;22.20;2.35;;;1.90;99.90;;;;;;5000001;28;20506;-57
2021/12/02 05:31:51;;;;;;;11.63;1.70;;;1.90;99.90;;;;;;5010134;28;20564;-56
2021/12/02 05:34:17;;;;;;;12.02;1.70;;;1.90;99.90;;;;;;5001115;28;20035;-56
2021/12/02 05:36:43;;;;;;;8.38;1.85;;;1.90;99.90;;;;;;5012186;28;20053;-57
2021/12/02 05:39:09;;;;;;;6.57;1.73;;;1.90;99.90;;;;;;4999316;28;20066;-57
2021/12/02 05:41:34;;;;;;;5.65;1.55;;;1.90;99.90;;;;;;5010862;28;20149;-57
2021/12/02 05:44:00;;;;;;;10.90;2.15;;;1.90;99.90;;;;;;4998743;28;20114;-56
2021/12/02 05:46:27;;;;;;;11.95;1.80;;;1.90;99.90;;;;;;5009248;28;20109;-57
2021/12/02 05:48:52;;;;;;;7.72;1.88;;;1.90;99.90;;;;;;5002501;28;20026;-57
2021/12/02 05:51:18;;;;;;;8.48;1.75;;;1.90;99.90;;;;;;5008496;28;20030;-54
2021/12/02 05:53:43;;;;;;;7.13;1.77;;;1.90;99.90;;;;;;5005606;28;20026;-56
2021/12/02 05:56:09;;;;;;;9.55;2.35;;;1.90;99.90;;;;;;5007022;28;20034;-57
2021/12/02 05:58:35;;;;;;;9.27;1.70;;;1.90;99.90;;;;;;5007414;28;20025;-57
2021/12/02 06:01:00;;;;;;;13.27;2.47;;;1.80;99.90;;;;;;5005362;28;20029;-56
2021/12/02 06:03:26;;;;;;;8.27;2.60;;;1.90;99.90;;;;;;5001017;28;20042;-57
2021/12/02 06:05:52;;;;;;;7.85;1.67;;;1.80;99.90;;;;;;5003822;28;20392;-57
2021/12/02 06:08:17;;;;;;;10.10;1.98;;;1.80;99.90;;;;;;5002132;28;20026;-57
2021/12/02 06:10:43;;;;;;;9.85;2.03;;;1.80;99.90;;;;;;5003458;28;20014;-57
2021/12/02 06:13:09;;;;;;;15.10;2.40;;;1.80;99.90;;;;;;5004321;28;20037;-58
2021/12/02 06:15:35;;;;;;;10.65;1.88;;;1.80;99.90;;;;;;5002106;28;20488;-58
2021/12/02 06:18:00;;;;;;;8.98;2.17;;;1.80;99.90;;;;;;5004762;28;20078;-56
2021/12/02 06:20:26;;;;;;;12.70;1.98;;;1.80;99.90;;;;;;5001238;28;20117;-58
2021/12/02 06:22:51;;;;;;;11.82;2.67;;;1.70;99.90;;;;;;5008576;28;20404;-57
2021/12/02 06:27:52;;;;;;;11.40;2.15;;;1.70;99.90;;;;;;5009343;28;20487;-56
2021/12/02 06:30:21;;;;;;;15.45;2.55;;;1.70;99.90;;;;;;4996425;28;20019;-58
2021/12/02 06:32:47;;;;;;;13.75;2.95;;;1.70;99.90;;;;;;4972192;28;20035;-56
2021/12/02 06:35:13;;;;;;;11.75;2.28;;;1.70;99.90;;;;;;5002116;28;20036;-58
2021/12/02 06:37:40;;;;;;;17.40;2.88;;;1.70;99.90;;;;;;4994308;28;20026;-56
2021/12/02 06:40:07;;;;;;;16.88;2.90;;;1.70;99.90;;;;;;5002395;28;20049;-56
2021/12/02 06:42:32;;;;;;;13.13;3.08;;;1.60;99.90;;;;;;5001260;28;20057;-57
2021/12/02 06:44:58;;;;;;;15.75;2.88;;;1.70;99.90;;;;;;4990421;28;20060;-57
2021/12/02 06:47:30;;;;;;;9.95;2.70;;;1.60;99.90;;;;;;4987163;28;20089;-55
2021/12/02 06:49:56;;;;;;;13.27;2.05;;;1.60;99.90;;;;;;4971752;28;20050;-55
2021/12/02 06:52:24;;;;;;;16.73;3.17;;;1.60;99.90;;;;;;4976737;28;20062;-56
2021/12/02 06:54:49;;;;;;;11.32;2.08;;;1.60;99.90;;;;;;5003092;28;20076;-57
2021/12/02 06:57:17;;;;;;;14.48;2.72;;;1.60;99.90;;;;;;5004267;28;20354;-57
2021/12/02 06:59:43;;;;;;;5.43;2.28;;;1.60;99.90;;;;;;4997591;28;20033;-57
2021/12/02 07:02:09;;;;;;;17.10;3.40;;;1.60;99.90;;;;;;4996955;28;20033;-54
2021/12/02 07:04:34;;;;;;;17.80;2.60;;;1.60;99.90;;;;;;4996214;28;20077;-59
2021/12/02 07:07:00;;;;;;;15.50;2.88;;;1.60;99.90;;;;;;5011271;28;20033;-63
2021/12/02 07:09:26;;;;;;;17.70;2.45;;;1.60;99.90;;;;;;4991290;28;20077;-58
2021/12/02 07:11:52;;;;;;;13.35;2.88;;;1.60;99.90;;;;;;4991531;28;20022;-61
2021/12/02 07:14:19;;;;;;;12.48;2.53;;;1.60;99.90;;;;;;4981080;28;20553;-58
2021/12/02 07:16:45;;;;;;;21.27;2.72;;;1.60;99.90;;;;;;4979326;28;20113;-61
2021/12/02 07:19:11;;;;;;;8.60;2.28;;;1.60;99.90;;;;;;4970935;28;20033;-60
2021/12/02 07:21:39;;;;;;;35.60;3.90;;;1.60;99.90;;;;;;4970735;28;20034;-60
2021/12/02 07:24:13;;;;;;;12.32;2.67;;;1.60;99.90;;;;;;4978436;28;20492;-61
2021/12/02 07:26:41;;;;;;;17.17;2.58;;;1.60;99.90;;;;;;4970744;28;20046;-61
2021/12/02 07:29:25;;;;;;;12.35;2.40;;;1.60;99.90;;;;;;4968817;28;20031;-60
2021/12/02 07:31:51;;;;;;;17.70;2.70;;;1.60;99.90;;;;;;4974424;28;20031;-59
2021/12/02 07:34:20;;;;;;;17.65;2.95;;;1.60;99.90;;;;;;5003877;28;20112;-61
2021/12/02 07:36:47;;;;;;;14.60;2.45;;;1.60;99.90;;;;;;4980628;28;20419;-60
2021/12/02 07:39:13;;;;;;;19.70;3.35;;;1.60;99.90;;;;;;4967891;28;20054;-61
2021/12/02 07:41:40;;;;;;;13.63;3.40;;;1.60;99.90;;;;;;4969850;28;20085;-60
2021/12/02 07:44:06;;;;;;;14.77;2.83;;;1.50;99.90;;;;;;4983476;28;20037;-60
2021/12/02 07:46:32;;;;;;;12.38;2.47;;;1.60;99.90;;;;;;4969253;28;20574;-60
2021/12/02 07:48:59;;;;;;;19.98;2.95;;;1.60;99.90;;;;;;4968149;28;20401;-54
2021/12/02 07:51:29;;;;;;;15.43;3.00;;;1.60;99.90;;;;;;4970365;28;20054;-55
2021/12/02 07:53:58;;;;;;;21.67;3.22;;;1.70;99.90;;;;;;4987071;28;20057;-59
2021/12/02 07:56:24;;;;;;;16.88;3.40;;;1.70;99.90;;;;;;4982949;28;20094;-57
2021/12/02 07:58:50;;;;;;;12.88;3.53;;;1.70;99.90;;;;;;4981771;28;20043;-61
2021/12/02 08:01:18;;;;;;;15.38;3.17;;;1.70;99.90;;;;;;4970504;28;20338;-61
2021/12/02 08:03:44;;;;;;;8.80;2.92;;;1.70;99.90;;;;;;4995788;28;20030;-57
2021/12/02 08:06:14;;;;;;;8.25;2.47;;;1.70;99.90;;;;;;4989315;28;21070;-60
2021/12/02 08:08:41;;;;;;;19.77;2.90;;;1.70;99.90;;;;;;4977457;28;20037;-61
2021/12/02 08:11:08;;;;;;;19.17;3.20;;;1.70;99.90;;;;;;4984588;28;20037;-56
2021/12/02 08:13:35;;;;;;;17.52;3.90;;;1.70;99.90;;;;;;4976824;28;20038;-56
2021/12/02 08:16:02;;;;;;;15.18;3.10;;;1.70;99.90;;;;;;4978623;28;20488;-56
2021/12/02 08:18:28;;;;;;;16.13;3.13;;;1.70;99.90;;;;;;4976591;28;20117;-58
2021/12/02 08:20:54;;;;;;;14.85;2.78;;;1.80;99.90;;;;;;4976866;28;20081;-59
2021/12/02 08:23:20;;;;;;;19.75;3.63;;;1.80;99.90;;;;;;4977667;28;20113;-58
2021/12/02 08:25:46;;;;;;;9.50;2.72;;;1.80;99.90;;;;;;4980163;28;20023;-60
2021/12/02 08:28:11;;;;;;;13.77;2.50;;;1.80;99.90;;;;;;4979881;28;20448;-59
2021/12/02 08:30:37;;;;;;;10.07;2.97;;;1.90;99.90;;;;;;4979356;28;20034;-64
2021/12/02 08:33:05;;;;;;;12.48;2.50;;;1.90;99.90;;;;;;4977088;28;20034;-59
2021/12/02 08:35:33;;;;;;;9.68;2.30;;;2.00;99.90;;;;;;4983977;28;20024;-57
2021/12/02 08:38:02;;;;;;;9.88;2.55;;;2.10;99.90;;;;;;4974611;28;20038;-54
2021/12/02 08:40:33;;;;;;;14.20;2.92;;;2.10;99.90;;;;;;4981083;28;20026;-53
2021/12/02 08:43:03;;;;;;;13.50;2.85;;;2.20;99.90;;;;;;4981648;28;20798;-58
2021/12/02 08:45:29;;;;;;;13.50;2.88;;;2.20;99.90;;;;;;4977961;28;20030;-56
2021/12/02 08:47:56;;;;;;;16.17;3.00;;;2.30;99.90;;;;;;4975376;28;20034;-54
2021/12/02 08:50:22;;;;;;;9.35;2.20;;;2.30;99.90;;;;;;4977011;28;21479;-58
2021/12/02 08:52:50;;;;;;;9.95;2.20;;;2.30;99.90;;;;;;4977150;28;20042;-59
2021/12/02 08:55:17;;;;;;;12.30;2.55;;;2.30;99.90;;;;;;4976751;28;20023;-57
2021/12/02 08:57:42;;;;;;;16.40;3.28;;;2.40;99.90;;;;;;4987201;28;20528;-54
2021/12/02 09:00:12;;;;;;;8.45;2.60;;;2.50;99.90;;;;;;4975190;28;20080;-56
2021/12/02 09:02:38;;;;;;;11.98;2.10;;;2.50;99.90;;;;;;4979395;28;20034;-55
2021/12/02 09:05:04;;;;;;;10.23;2.35;;;2.50;99.90;;;;;;4976647;28;20033;-57
2021/12/02 09:07:31;;;;;;;14.18;2.38;;;2.60;99.90;;;;;;4977449;28;20645;-55
2021/12/02 09:09:57;;;;;;;10.52;2.40;;;2.60;99.90;;;;;;4975309;28;20425;-57
2021/12/02 09:12:23;;;;;;;11.85;2.40;;;2.60;99.90;;;;;;4975234;28;20076;-58
2021/12/02 09:14:50;;;;;;;9.80;2.40;;;2.60;99.90;;;;;;4978947;28;20492;-55
2021/12/02 09:17:16;;;;;;;7.45;2.38;;;2.70;99.90;;;;;;4976437;28;20030;-59
2021/12/02 09:19:42;;;;;;;11.18;2.90;;;2.70;99.90;;;;;;4977296;28;20547;-59
2021/12/02 09:22:08;;;;;;;13.50;3.45;;;2.80;99.90;;;;;;4980436;28;20421;-59
2021/12/02 09:24:34;;;;;;;8.75;2.63;;;2.80;99.90;;;;;;4988071;28;20141;-59
2021/12/02 09:26:59;;;;;;;13.00;2.78;;;2.80;99.90;;;;;;4985310;28;20511;-58
2021/12/02 09:29:25;;;;;;;14.00;2.78;;;2.90;99.90;;;;;;4979967;28;20030;-58
2021/12/02 09:31:53;;;;;;;19.08;3.35;;;2.90;99.90;;;;;;4975136;28;20727;-61
2021/12/02 09:34:19;;;;;;;13.82;3.10;;;2.90;99.90;;;;;;4995922;28;20122;-56
2021/12/02 09:36:46;;;;;;;9.15;2.28;;;2.90;99.90;;;;;;4998357;28;20112;-57
2021/12/02 09:39:14;;;;;;;11.52;2.45;;;3.00;99.90;;;;;;4971296;28;20783;-54
2021/12/02 09:41:40;;;;;;;6.82;2.80;;;3.00;99.90;;;;;;4973248;28;20064;-57
2021/12/02 09:44:07;;;;;;;11.23;2.10;;;3.00;99.90;;;;;;4971351;28;20393;-57
2021/12/02 09:46:34;;;;;;;13.10;2.72;;;3.00;99.90;;;;;;4972566;28;20034;-57
2021/12/02 09:49:03;;;;;;;14.00;2.85;;;3.10;99.90;;;;;;4971581;28;20027;-57
2021/12/02 09:51:37;;;;;;;6.65;2.17;;;3.10;99.90;;;;;;4971991;28;20435;-58
2021/12/02 09:54:28;;;;;;;10.02;2.60;;;3.20;99.90;;;;;;4980934;28;20484;-57
2021/12/02 09:56:52;;;;;;;9.48;2.50;;;3.30;99.90;;;;;;4982342;28;20050;-55
2021/12/02 09:59:27;;;;;;;10.90;2.65;;;3.30;99.90;;;;;;4970441;28;20602;-55
2021/12/02 10:01:58;;;;;;;8.43;2.53;;;3.30;99.90;;;;;;4971340;28;20038;-56
2021/12/02 10:04:26;;;;;;;15.00;3.38;;;3.30;99.90;;;;;;4972334;28;20128;-54
2021/12/02 10:07:25;;;;;;;10.30;2.15;;;3.40;99.90;;;;;;4971107;28;20835;-55
2021/12/02 10:10:11;;;;;;;24.45;2.55;;;3.40;99.90;;;;;;4971732;28;20035;-56
2021/12/02 10:12:49;;;;;;;8.13;2.55;;;3.50;99.90;;;;;;4988225;28;20045;-57
2021/12/02 10:15:17;;;;;;;15.98;3.05;;;3.60;99.90;;;;;;4977940;28;20026;-56
2021/12/02 10:17:50;;;;;;;13.80;3.40;;;3.70;99.90;;;;;;4989160;28;20030;-58
2021/12/02 10:25:48;;;;;;;12.38;2.55;;;3.70;99.90;;;;;;5001103;28;20124;-58
2021/12/02 10:28:16;;;;;;;9.45;2.47;;;3.70;99.90;;;;;;4998055;28;20542;-56
2021/12/02 10:30:48;;;;;;;13.55;3.05;;;3.70;99.90;;;;;;4997892;28;20411;-58
2021/12/02 10:33:13;;;;;;;10.55;2.38;;;3.80;99.90;;;;;;5004665;28;20090;-57
2021/12/02 10:35:45;;;;;;;12.45;2.85;;;3.80;99.90;;;;;;4998158;28;20527;-54
2021/12/02 10:38:34;;;;;;;13.43;2.30;;;3.80;99.90;;;;;;5000856;28;20053;-56
2021/12/02 10:41:03;;;;;;;16.10;2.72;;;3.90;99.90;;;;;;4992028;28;20080;-57
2021/12/02 10:43:28;;;;;;;11.93;2.78;;;4.00;99.90;;;;;;5000823;28;20476;-54
2021/12/02 10:46:16;;;;;;;11.32;2.30;;;4.00;99.90;;;;;;4999266;28;20068;-58
2021/12/02 10:48:50;;;;;;;10.70;4.00;;;3.90;99.90;;;;;;4993379;28;20376;-59
2021/12/02 10:51:38;;;;;;;11.13;2.85;;;3.90;99.90;;;;;;5000284;28;20037;-59
2021/12/02 10:54:14;;;;;;;10.82;2.65;;;3.90;99.90;;;;;;4992165;28;20026;-58
2021/12/02 10:56:43;;;;;;;10.52;2.30;;;3.90;99.90;;;;;;5000073;28;20038;-57
2021/12/02 10:59:22;;;;;;;9.05;2.50;;;4.00;99.90;;;;;;4995219;28;20026;-57
2021/12/02 11:01:48;;;;;;;8.10;2.00;;;4.00;99.90;;;;;;4993949;28;20120;-59
2021/12/02 11:04:14;;;;;;;18.25;3.00;;;4.00;99.90;;;;;;4986475;28;20121;-55
2021/12/02 11:06:44;;;;;;;8.80;2.45;;;4.00;99.90;;;;;;4981077;28;20030;-58
2021/12/02 11:09:37;;;;;;;11.98;2.67;;;4.00;99.90;;;;;;4973935;28;20038;-57
2021/12/02 11:12:09;;;;;;;10.38;2.92;;;4.10;99.90;;;;;;4989445;28;20036;-60
2021/12/02 11:14:36;;;;;;;12.73;3.47;;;4.20;99.90;;;;;;4987614;28;20388;-61
2021/12/02 11:17:15;;;;;;;8.77;2.58;;;4.30;99.90;;;;;;4990326;28;20277;-55
2021/12/02 11:19:46;;;;;;;8.55;2.50;;;4.40;99.90;;;;;;4984447;28;20445;-56
2021/12/02 11:22:18;;;;;;;9.82;2.60;;;4.50;99.90;;;;;;4989198;28;20128;-55
2021/12/02 11:24:45;;;;;;;15.93;3.27;;;4.50;99.90;;;;;;5001169;28;20025;-57
2021/12/02 11:27:28;;;;;;;16.15;3.38;;;4.50;99.90;;;;;;4999953;28;20395;-57
2021/12/02 11:30:09;;;;;;;17.25;3.15;;;4.60;99.90;;;;;;4991712;28;20200;-62
2021/12/02 11:32:34;;;;;;;7.47;2.42;;;4.60;99.90;;;;;;4991940;28;20025;-61
2021/12/02 11:35:00;;;;;;;13.07;2.63;;;4.60;99.90;;;;;;4994036;28;20543;-62
2021/12/02 11:37:26;;;;;;;9.75;1.80;;;4.70;99.90;;;;;;4998844;28;20033;-61
2021/12/02 11:39:55;;;;;;;10.00;2.83;;;4.60;99.90;;;;;;4990377;28;20027;-61
2021/12/02 11:42:21;;;;;;;9.82;2.17;;;4.60;99.90;;;;;;4999004;28;20060;-49
2021/12/02 11:44:46;;;;;;;25.38;2.47;;;4.50;99.90;;;;;;4988453;28;20104;-51
2021/12/02 11:47:12;;;;;;;12.30;2.20;;;4.40;99.90;;;;;;4997718;28;20034;-56
2021/12/02 11:49:39;;;;;;;12.85;2.05;;;4.50;99.90;;;;;;4991175;28;20073;-54
2021/12/02 11:52:05;;;;;;;11.52;2.70;;;4.40;99.90;;;;;;4996168;28;20068;-51
2021/12/02 11:54:32;;;;;;;4.85;2.08;;;4.30;99.90;;;;;;4991854;28;20492;-51
2021/12/02 11:56:58;;;;;;;14.43;2.90;;;4.20;99.90;;;;;;5001637;28;20032;-54
2021/12/02 11:59:25;;;;;;;16.02;2.65;;;4.30;99.90;;;;;;5001036;28;20467;-54
2021/12/02 12:01:58;;;;;;;18.05;2.75;;;4.30;99.90;;;;;;5001639;28;20026;-60
2021/12/02 12:04:24;;;;;;;7.57;2.63;;;4.30;99.90;;;;;;5001838;28;20026;-57
2021/12/02 12:06:54;;;;;;;13.55;2.53;;;4.20;99.90;;;;;;4995609;28;20457;-52
2021/12/02 12:09:25;;;;;;;12.40;2.50;;;4.10;99.90;;;;;;4974046;28;20034;-57
2021/12/02 12:11:54;;;;;;;7.85;2.53;;;4.10;99.90;;;;;;5001348;28;20029;-54
2021/12/02 12:14:41;;;;;;;14.10;2.85;;;4.10;99.90;;;;;;5003987;28;20506;-58
2021/12/02 12:17:15;;;;;;;16.52;3.67;;;4.00;99.90;;;;;;4992652;28;20353;-55
2021/12/02 12:19:50;;;;;;;15.38;2.78;;;3.90;99.90;;;;;;4991286;28;20969;-52
2021/12/02 12:22:29;;;;;;;11.38;2.75;;;3.90;99.90;;;;;;5001239;28;20025;-52
2021/12/02 12:24:58;;;;;;;14.35;2.60;;;3.80;99.90;;;;;;5004827;28;20041;-54
2021/12/02 12:27:27;;;;;;;11.55;2.17;;;3.80;99.90;;;;;;4990973;28;20034;-52
2021/12/02 12:30:19;;;;;;;11.77;2.38;;;3.80;99.90;;;;;;4992416;28;20038;-53
2021/12/02 12:33:12;;;;;;;17.77;2.10;;;3.80;99.90;;;;;;5001476;28;20034;-54
2021/12/02 12:38:25;;;;;;;13.30;2.75;;;3.70;99.90;;;;;;5004271;28;20092;-53
2021/12/02 12:41:01;;;;;;;9.18;3.00;;;3.70;99.90;;;;;;4997410;28;20161;-62
2021/12/02 12:43:36;;;;;;;9.80;2.15;;;3.70;99.90;;;;;;5006342;28;20045;-56
2021/12/02 12:46:17;;;;;;;14.02;2.33;;;3.70;99.90;;;;;;4991746;28;20026;-51
2021/12/02 12:48:44;;;;;;;28.45;2.72;;;3.80;99.90;;;;;;5005743;28;20462;-53
2021/12/02 12:51:22;;;;;;;10.95;3.05;;;3.70;99.90;;;;;;4999642;28;20029;-52
2021/12/02 12:53:50;;;;;;;9.15;2.10;;;3.70;99.90;;;;;;4971841;28;20027;-51
2021/12/02 12:56:24;;;;;;;10.57;2.85;;;3.80;99.90;;;;;;4999232;28;20607;-52
2021/12/02 12:58:53;;;;;;;10.02;2.38;;;3.90;99.90;;;;;;4974499;28;20031;-51
2021/12/02 13:01:21;;;;;;;17.25;2.75;;;3.80;99.90;;;;;;5001181;28;20480;-54
2021/12/02 13:04:15;;;;;;;9.52;2.55;;;4.00;99.90;;;;;;4991337;28;20038;-53
2021/12/02 13:07:08;;;;;;;5.65;2.33;;;3.90;99.90;;;;;;5000445;28;20759;-54
2021/12/02 13:09:43;;;;;;;;;;;3.90;99.90;;;;;;5002296;28;20026;-55
2021/12/02 13:12:12;;;;;;;8.65;2.42;;;3.90;99.90;;;;;;5003951;28;19919;-54
2021/12/02 13:14:40;;;;;;;11.55;2.53;;;3.90;99.90;;;;;;5006660;28;20077;-58
2021/12/02 13:17:42;;;;;;;9.88;2.40;;;3.80;99.90;;;;;;5003356;28;20109;-56
2021/12/02 13:20:18;;;;;;;10.75;2.90;;;3.70;99.90;;;;;;4990390;28;20038;-52
2021/12/02 13:23:07;;;;;;;9.93;3.13;;;3.70;99.90;;;;;;5004381;28;20406;-58
2021/12/02 13:25:42;;;;;;;18.65;3.20;;;3.60;99.90;;;;;;5002144;28;20057;-52
2021/12/02 13:28:15;;;;;;;11.38;2.67;;;3.60;99.90;;;;;;5006345;28;20030;-55
2021/12/02 13:30:49;;;;;;;18.42;3.30;;;3.70;99.90;;;;;;5001283;28;20498;-55
2021/12/02 13:33:16;;;;;;;7.57;2.28;;;3.70;99.90;;;;;;5005385;28;20037;-52